createdAt,value
2019-04-28T00:00:51.047Z,84.40
2019-04-28T00:04:56.485Z,83.80
2019-04-28T00:09:01.786Z,83.40
2019-04-28T00:13:08.711Z,84.60
2019-04-28T00:17:13.818Z,85.20
2019-04-28T00:21:43.951Z,83.70
2019-04-28T00:26:01.506Z,84.00
2019-04-28T00:30:08.790Z,84.80
2019-04-28T00:34:13.731Z,84.80
2019-04-28T00:38:18.648Z,83.10
2019-04-28T00:42:24.004Z,83.50
2019-04-28T00:46:34.054Z,82.10
2019-04-28T00:50:39.086Z,81.80
2019-04-28T00:54:44.896Z,83.20
2019-04-28T00:58:51.368Z,83.90
2019-04-28T01:02:56.410Z,84.20
2019-04-28T01:07:01.668Z,84.10
2019-04-28T01:11:07.088Z,84.20
2019-04-28T01:15:20.965Z,83.90
2019-04-28T01:19:30.202Z,81.90
2019-04-28T01:23:35.544Z,80.20
2019-04-28T01:27:52.928Z,80.30
2019-04-28T01:32:15.107Z,78.80
2019-04-28T01:36:20.318Z,78.70
2019-04-28T01:40:25.543Z,78.50
2019-04-28T01:44:30.690Z,79.30
2019-04-28T01:48:35.532Z,80.80
2019-04-28T01:52:40.593Z,81.40
2019-04-28T01:56:45.536Z,81.40
2019-04-28T02:00:50.633Z,80.80
2019-04-28T02:04:55.848Z,82.00
2019-04-28T02:09:00.985Z,82.50
2019-04-28T02:13:07.650Z,82.70
2019-04-28T02:17:13.099Z,83.20
2019-04-28T02:21:34.623Z,82.50
2019-04-28T02:25:39.927Z,81.00
2019-04-28T02:29:45.198Z,81.20
2019-04-28T02:33:50.994Z,81.00
2019-04-28T02:37:56.915Z,81.30
2019-04-28T02:42:02.028Z,81.60
2019-04-28T02:46:10.553Z,81.00
2019-04-28T02:50:41.138Z,82.00
2019-04-28T02:54:46.899Z,81.40
2019-04-28T02:58:51.833Z,82.20
2019-04-28T03:02:56.950Z,82.00
2019-04-28T03:07:01.833Z,81.80
2019-04-28T03:11:06.761Z,82.00
2019-04-28T03:15:13.746Z,82.10
2019-04-28T03:19:21.080Z,80.40
2019-04-28T03:23:25.232Z,80.90
2019-04-28T03:27:37.441Z,81.20
2019-04-28T03:32:28.480Z,79.90
2019-04-28T03:36:15.606Z,80.10
2019-04-28T03:40:21.204Z,80.10
2019-04-28T03:44:26.304Z,80.40
2019-04-28T03:48:33.586Z,79.20
2019-04-28T03:52:41.231Z,80.20
2019-04-28T03:56:45.368Z,79.50
2019-04-28T04:00:50.765Z,80.40
2019-04-28T04:04:56.369Z,79.30
2019-04-28T04:09:01.265Z,79.80
2019-04-28T04:13:33.154Z,79.00
2019-04-28T04:17:41.960Z,79.40
2019-04-28T04:21:46.779Z,78.90
2019-04-28T04:25:51.892Z,78.80
2019-04-28T04:29:56.981Z,79.40
2019-04-28T04:34:03.333Z,79.40
2019-04-28T04:38:10.451Z,78.60
2019-04-28T04:42:15.008Z,78.00
2019-04-28T04:46:22.817Z,78.00
2019-04-28T04:50:28.183Z,78.20
2019-04-28T04:54:36.492Z,77.50
2019-04-28T04:58:40.729Z,78.30
2019-04-28T05:02:55.180Z,77.90
2019-04-28T05:06:59.683Z,76.80
2019-04-28T05:11:04.737Z,76.10
2019-04-28T05:15:10.438Z,75.00
2019-04-28T05:19:15.742Z,74.00
2019-04-28T05:23:39.878Z,72.90
2019-04-28T05:27:44.595Z,72.60
2019-04-28T05:31:50.390Z,71.60
2019-04-28T05:36:01.082Z,72.20
2019-04-28T05:40:04.352Z,73.00
2019-04-28T05:44:10.097Z,73.90
2019-04-28T05:48:16.696Z,73.60
2019-04-28T05:52:50.184Z,73.60
2019-04-28T05:57:14.219Z,74.20
2019-04-28T06:01:53.477Z,73.50
2019-04-28T06:05:59.988Z,74.50
2019-04-28T06:10:05.768Z,72.40
2019-04-28T06:14:10.784Z,71.70
2019-04-28T06:18:15.715Z,72.00
2019-04-28T06:22:20.520Z,71.40
2019-04-28T06:26:25.532Z,72.30
2019-04-28T06:30:30.453Z,71.40
2019-04-28T06:34:35.524Z,71.40
2019-04-28T06:38:40.420Z,71.00
2019-04-28T06:42:45.303Z,70.90
2019-04-28T06:46:51.602Z,70.70
2019-04-28T06:50:56.495Z,68.90
2019-04-28T06:55:01.618Z,68.50
2019-04-28T06:59:06.514Z,68.90
2019-04-28T07:03:22.669Z,67.10
2019-04-28T07:07:17.905Z,67.60
2019-04-28T07:11:22.801Z,67.80
2019-04-28T07:15:27.917Z,67.40
2019-04-28T07:19:33.753Z,66.40
2019-04-28T07:23:41.339Z,66.50
2019-04-28T07:27:46.284Z,66.40
2019-04-28T07:31:51.397Z,64.40
2019-04-28T07:35:56.553Z,64.80
2019-04-28T07:40:01.386Z,64.80
2019-04-28T07:44:06.460Z,65.60
2019-04-28T07:48:11.452Z,64.90
2019-04-28T07:52:44.699Z,66.30
2019-04-28T07:56:50.128Z,63.80
2019-04-28T08:00:55.455Z,64.90
2019-04-28T08:05:00.684Z,64.80
2019-04-28T08:09:08.817Z,63.90
2019-04-28T08:13:14.808Z,62.90
2019-04-28T08:17:19.966Z,63.60
2019-04-28T08:21:24.797Z,63.80
2019-04-28T08:25:29.809Z,61.10
2019-04-28T08:29:34.643Z,62.40
2019-04-28T08:33:45.322Z,63.10
2019-04-28T08:37:50.228Z,62.40
2019-04-28T08:41:55.141Z,63.10
2019-04-28T08:46:00.124Z,64.70
2019-04-28T08:50:05.743Z,62.20
2019-04-28T08:54:10.788Z,61.80
2019-04-28T08:58:15.750Z,60.00
2019-04-28T09:02:20.645Z,58.90
2019-04-28T09:06:25.577Z,58.70
2019-04-28T09:10:30.479Z,58.80
2019-04-28T09:14:35.500Z,58.30
2019-04-28T09:18:40.465Z,57.60
2019-04-28T09:22:45.624Z,57.90
2019-04-28T09:26:50.669Z,55.90
2019-04-28T09:30:55.856Z,56.20
2019-04-28T09:35:00.881Z,56.40
2019-04-28T09:39:09.160Z,55.50
2019-04-28T09:43:26.996Z,54.70
2019-04-28T09:47:31.868Z,55.50
2019-04-28T09:51:36.716Z,54.90
2019-04-28T09:55:41.776Z,54.20
2019-04-28T09:59:46.700Z,54.70
2019-04-28T10:03:51.760Z,54.40
2019-04-28T10:07:56.785Z,53.90
2019-04-28T10:12:01.709Z,54.70
2019-04-28T10:16:32.232Z,54.60
2019-04-28T10:20:50.273Z,54.10
2019-04-28T10:25:06.706Z,50.20
2019-04-28T10:29:22.653Z,53.60
2019-04-28T10:33:35.452Z,53.90
2019-04-28T10:37:45.673Z,53.20
2019-04-28T10:41:52.742Z,53.40
2019-04-28T10:46:02.163Z,51.80
2019-04-28T10:50:08.169Z,51.70
2019-04-28T10:54:13.897Z,50.70
2019-04-28T10:58:18.892Z,52.00
2019-04-28T11:02:24.164Z,52.10
2019-04-28T11:06:29.208Z,51.40
2019-04-28T11:10:34.272Z,50.50
2019-04-28T11:14:39.714Z,51.30
2019-04-28T11:18:45.017Z,49.90
2019-04-28T11:22:56.472Z,49.70
2019-04-28T11:27:05.031Z,47.70
2019-04-28T11:31:11.764Z,47.50
2019-04-28T11:35:25.345Z,48.20
2019-04-28T11:39:34.676Z,49.10
2019-04-28T11:43:39.736Z,50.00
2019-04-28T11:47:47.080Z,49.10
2019-04-28T11:51:53.051Z,49.00
2019-04-28T11:55:58.351Z,49.80
2019-04-28T12:00:05.672Z,48.80
2019-04-28T12:04:12.541Z,49.00
2019-04-28T12:08:17.462Z,49.00
2019-04-28T12:12:31.068Z,47.80
2019-04-28T12:17:11.505Z,47.50
2019-04-28T12:21:17.524Z,48.10
2019-04-28T12:25:23.334Z,48.80
2019-04-28T12:29:28.108Z,49.60
2019-04-28T12:33:33.057Z,50.10
2019-04-28T12:37:38.863Z,50.30
2019-04-28T12:41:45.641Z,49.70
2019-04-28T12:45:50.737Z,48.70
2019-04-28T12:50:00.488Z,47.80
2019-04-28T12:54:07.516Z,47.90
2019-04-28T12:58:12.264Z,47.10
2019-04-28T13:02:33.306Z,46.00
2019-04-28T13:06:39.397Z,45.10
2019-04-28T13:10:44.857Z,45.00
2019-04-28T13:14:49.979Z,45.70
2019-04-28T13:18:54.925Z,46.90
2019-04-28T13:23:00.270Z,47.70
2019-04-28T13:27:05.524Z,48.90
2019-04-28T13:31:10.448Z,48.20
2019-04-28T13:35:16.364Z,48.80
2019-04-28T13:39:26.786Z,49.80
2019-04-28T13:43:31.532Z,51.70
2019-04-28T13:47:36.688Z,51.10
2019-04-28T13:51:41.522Z,51.90
2019-04-28T13:56:00.346Z,51.60
2019-04-28T14:00:07.563Z,51.30
2019-04-28T14:04:34.715Z,48.60
2019-04-28T14:08:39.512Z,47.80
2019-04-28T14:12:44.428Z,46.80
2019-04-28T14:16:49.361Z,46.30
2019-04-28T14:20:54.494Z,45.90
2019-04-28T14:24:59.640Z,46.10
2019-04-28T14:29:05.530Z,44.80
2019-04-28T14:33:10.587Z,45.70
2019-04-28T14:37:15.691Z,44.60
2019-04-28T14:41:20.703Z,44.80
2019-04-28T14:45:25.727Z,45.70
2019-04-28T14:49:30.605Z,43.80
2019-04-28T14:53:35.645Z,43.60
2019-04-28T14:57:40.447Z,41.40
2019-04-28T15:02:10.461Z,40.10
2019-04-28T15:06:27.788Z,41.10
2019-04-28T15:10:39.052Z,41.80
2019-04-28T15:14:43.969Z,42.00
2019-04-28T15:18:48.893Z,42.30
2019-04-28T15:22:54.078Z,43.30
2019-04-28T15:26:59.224Z,43.60
2019-04-28T15:31:04.153Z,44.60
2019-04-28T15:35:09.102Z,47.00
2019-04-28T15:39:15.032Z,48.40
2019-04-28T15:43:22.826Z,50.20
2019-04-28T15:47:27.569Z,51.20
2019-04-28T15:51:32.536Z,50.60
2019-04-28T15:55:43.904Z,51.20
2019-04-28T15:59:48.733Z,48.40
2019-04-28T16:03:53.840Z,49.10
2019-04-28T16:07:58.649Z,49.60
2019-04-28T16:12:03.555Z,49.80
2019-04-28T16:16:08.369Z,49.90
2019-04-28T16:20:13.565Z,49.70
2019-04-28T16:24:18.993Z,50.50
2019-04-28T16:28:23.811Z,51.00
2019-04-28T16:32:28.652Z,51.20
2019-04-28T16:36:33.900Z,50.90
2019-04-28T16:40:38.972Z,51.10
2019-04-28T16:44:45.357Z,50.10
2019-04-28T16:48:50.232Z,49.70
2019-04-28T16:52:55.139Z,49.70
2019-04-28T16:57:07.872Z,49.20
2019-04-28T17:01:29.205Z,49.70
2019-04-28T17:05:34.068Z,50.10
2019-04-28T17:09:40.309Z,50.00
2019-04-28T17:13:45.441Z,50.00
2019-04-28T17:17:50.344Z,50.20
2019-04-28T17:21:55.220Z,51.00
2019-04-28T17:26:00.185Z,51.80
2019-04-28T17:30:06.855Z,50.90
2019-04-28T17:34:13.208Z,50.80
2019-04-28T17:38:18.124Z,55.70
2019-04-28T17:42:23.922Z,58.20
2019-04-28T17:46:28.851Z,59.30
2019-04-28T17:50:35.468Z,60.40
2019-04-28T17:54:40.512Z,62.80
2019-04-28T17:58:45.518Z,63.70
2019-04-28T18:03:00.541Z,64.90
2019-04-28T18:07:11.048Z,66.40
2019-04-28T18:11:16.212Z,66.30
2019-04-28T18:15:46.188Z,66.40
2019-04-28T18:19:51.395Z,66.60
2019-04-28T18:23:56.509Z,67.70
2019-04-28T18:28:01.322Z,68.40
2019-04-28T18:32:30.952Z,68.50
2019-04-28T18:36:42.580Z,68.90
2019-04-28T18:40:56.811Z,69.60
2019-04-28T18:45:01.767Z,70.00
2019-04-28T18:49:06.826Z,70.00
2019-04-28T18:53:11.651Z,69.70
2019-04-28T18:57:16.695Z,69.80
2019-04-28T19:01:32.471Z,69.20
2019-04-28T19:05:39.895Z,69.00
2019-04-28T19:09:53.621Z,69.90
2019-04-28T19:14:41.490Z,70.00
2019-04-28T19:18:49.028Z,70.30
2019-04-28T19:22:53.864Z,70.00
2019-04-28T19:26:58.981Z,70.00
2019-04-28T19:31:03.980Z,69.80
2019-04-28T19:35:09.412Z,70.10
2019-04-28T19:39:14.633Z,69.80
2019-04-28T19:43:21.095Z,70.30
2019-04-28T19:47:26.049Z,70.80
2019-04-28T19:51:32.249Z,70.40
2019-04-28T19:55:42.104Z,69.40
2019-04-28T20:00:06.340Z,68.60
2019-04-28T20:04:14.380Z,67.80
2019-04-28T20:08:19.606Z,66.10
2019-04-28T20:12:24.350Z,65.60
2019-04-28T20:16:29.345Z,65.20
2019-04-28T20:20:34.176Z,65.20
2019-04-28T20:24:46.896Z,65.60
2019-04-28T20:28:45.911Z,67.00
2019-04-28T20:32:50.872Z,67.80
2019-04-28T20:37:01.693Z,69.30
2019-04-28T20:41:15.337Z,69.80
2019-04-28T20:45:20.377Z,69.00
2019-04-28T20:49:25.268Z,69.10
2019-04-28T20:53:30.193Z,70.60
2019-04-28T20:57:35.016Z,70.40
2019-04-28T21:01:39.917Z,71.20
2019-04-28T21:05:46.447Z,72.90
2019-04-28T21:09:51.276Z,73.20
2019-04-28T21:13:56.518Z,73.20
2019-04-28T21:18:01.348Z,73.80
2019-04-28T21:22:06.128Z,74.30
2019-04-28T21:26:11.176Z,74.90
2019-04-28T21:30:16.089Z,74.40
2019-04-28T21:34:21.176Z,74.90
2019-04-28T21:38:25.920Z,75.60
2019-04-28T21:42:49.809Z,75.60
2019-04-28T21:47:05.900Z,76.60
2019-04-28T21:51:12.080Z,77.60
2019-04-28T21:55:17.687Z,77.90
2019-04-28T21:59:22.593Z,79.10
2019-04-28T22:03:27.533Z,79.00
2019-04-28T22:07:32.450Z,80.40
2019-04-28T22:11:37.375Z,80.60
2019-04-28T22:15:42.632Z,81.50
2019-04-28T22:19:47.465Z,82.00
2019-04-28T22:24:26.728Z,81.50
2019-04-28T22:28:31.560Z,80.30
2019-04-28T22:32:37.070Z,79.90
2019-04-28T22:36:42.340Z,79.60
2019-04-28T22:40:47.084Z,78.40
2019-04-28T22:44:51.964Z,77.80
2019-04-28T22:48:58.811Z,77.40
2019-04-28T22:53:03.765Z,77.90
2019-04-28T22:57:31.803Z,77.40
2019-04-28T23:01:40.306Z,77.30
2019-04-28T23:05:45.288Z,77.20
2019-04-28T23:09:50.184Z,76.70
2019-04-28T23:13:55.412Z,76.20
2019-04-28T23:18:00.305Z,75.60
2019-04-28T23:22:17.481Z,75.10
2019-04-28T23:26:22.445Z,76.60
2019-04-28T23:30:47.039Z,76.70
2019-04-28T23:34:52.177Z,78.30
2019-04-28T23:38:57.022Z,80.50
2019-04-28T23:43:08.652Z,80.30
2019-04-28T23:47:13.660Z,80.90
2019-04-28T23:51:27.192Z,80.50
2019-04-28T23:55:32.337Z,80.80
2019-04-28T23:59:37.173Z,80.50
